VOE9HF LEMH-LFRS
Flight info
| Callsign | VOE9HF |
|---|---|
| Flight time | 1h 24m |
| Altitude | 38000 |
| Route | MJV N861 ADX N863 GIROM DCT GONUP DCT MANAK |
| Aircraft | A319/M-SDFGIJ1RWY/LB1 |
Departure
| Time | 2026-04-30 21:25 |
|---|---|
| Airport | Menorca Airport (LEMH) |
Arrival
| Time | 2026-04-30 22:49 |
|---|---|
| Airport | Nantes Atlantique Airport (LFRS) |
| Time | Latitude | Longitude | Altitude | Speed | Heading |
|---|---|---|---|---|---|
| 2026-04-30 20:50 | 39.86468 | 4.22406 | 292 ft | 0 kts | 99° |
| 2026-04-30 21:14 | 39.86471 | 4.22382 | 287 ft | 4 kts | 99° |
| 2026-04-30 21:15 | 39.86475 | 4.22348 | 288 ft | 2 kts | 99° |
| 2026-04-30 21:15 | 39.86482 | 4.22321 | 292 ft | 4 kts | 142° |
| 2026-04-30 21:15 | 39.86502 | 4.22318 | 292 ft | 4 kts | 201° |
| 2026-04-30 21:15 | 39.86523 | 4.22328 | 290 ft | 1 kts | 189° |
| 2026-04-30 21:16 | 39.86524 | 4.22328 | 290 ft | 0 kts | 189° |
| 2026-04-30 21:18 | 39.86521 | 4.22327 | 290 ft | 1 kts | 189° |
| 2026-04-30 21:18 | 39.86502 | 4.22324 | 291 ft | 4 kts | 188° |
| 2026-04-30 21:18 | 39.86465 | 4.22317 | 296 ft | 7 kts | 188° |
| 2026-04-30 21:19 | 39.86415 | 4.22306 | 292 ft | 8 kts | 189° |
| 2026-04-30 21:19 | 39.86358 | 4.22294 | 288 ft | 9 kts | 189° |
| 2026-04-30 21:19 | 39.86318 | 4.22286 | 288 ft | 9 kts | 189° |
| 2026-04-30 21:19 | 39.86229 | 4.22268 | 288 ft | 10 kts | 189° |
| 2026-04-30 21:20 | 39.86189 | 4.22241 | 291 ft | 10 kts | 237° |
| 2026-04-30 21:20 | 39.86189 | 4.22165 | 291 ft | 7 kts | 279° |
| 2026-04-30 21:20 | 39.86191 | 4.22115 | 293 ft | 4 kts | 260° |
| 2026-04-30 21:20 | 39.86173 | 4.22091 | 297 ft | 4 kts | 205° |
| 2026-04-30 21:21 | 39.86131 | 4.22076 | 294 ft | 8 kts | 193° |
| 2026-04-30 21:21 | 39.86062 | 4.22063 | 295 ft | 12 kts | 188° |
| 2026-04-30 21:21 | 39.85855 | 4.22020 | 295 ft | 19 kts | 189° |
| 2026-04-30 21:22 | 39.85713 | 4.21991 | 291 ft | 22 kts | 189° |
| 2026-04-30 21:22 | 39.85258 | 4.21898 | 286 ft | 17 kts | 188° |
| 2026-04-30 21:23 | 39.85156 | 4.21875 | 281 ft | 13 kts | 199° |
| 2026-04-30 21:23 | 39.85130 | 4.21781 | 286 ft | 11 kts | 277° |
| 2026-04-30 21:23 | 39.85172 | 4.21645 | 286 ft | 6 kts | 351° |
| 2026-04-30 21:24 | 39.85209 | 4.21649 | 286 ft | 4 kts | 9° |
| 2026-04-30 21:24 | 39.85376 | 4.21683 | 291 ft | 61 kts | 9° |
| 2026-04-30 21:24 | 39.86041 | 4.21820 | 303 ft | 130 kts | 9° |
| 2026-04-30 21:24 | 39.87043 | 4.22030 | 690 ft | 148 kts | 11° |
| 2026-04-30 21:25 | 39.89063 | 4.22452 | 2054 ft | 149 kts | 14° |
| 2026-04-30 21:25 | 39.90166 | 4.22697 | 2462 ft | 171 kts | 13° |
| 2026-04-30 21:25 | 39.91400 | 4.22962 | 2933 ft | 188 kts | 12° |
| 2026-04-30 21:26 | 39.94259 | 4.23538 | 3711 ft | 232 kts | 10° |
| 2026-04-30 21:26 | 39.95930 | 4.23874 | 4111 ft | 259 kts | 9° |
| 2026-04-30 21:27 | 39.99668 | 4.24186 | 5791 ft | 280 kts | 347° |
| 2026-04-30 21:27 | 40.01447 | 4.23111 | 6702 ft | 287 kts | 321° |
| 2026-04-30 21:27 | 40.02741 | 4.21142 | 7622 ft | 289 kts | 297° |
| 2026-04-30 21:28 | 40.04745 | 4.16617 | 9742 ft | 285 kts | 299° |
| 2026-04-30 21:28 | 40.05879 | 4.14528 | 10793 ft | 281 kts | 311° |
| 2026-04-30 21:28 | 40.09119 | 4.11926 | 13007 ft | 271 kts | 341° |
| 2026-04-30 21:29 | 40.10925 | 4.11371 | 14132 ft | 261 kts | 343° |
| 2026-04-30 21:29 | 40.16390 | 4.09660 | 15653 ft | 299 kts | 342° |
| 2026-04-30 21:30 | 40.20753 | 4.08272 | 16046 ft | 345 kts | 343° |
| 2026-04-30 21:31 | 40.27969 | 4.06052 | 17937 ft | 362 kts | 343° |
| 2026-04-30 21:31 | 40.32912 | 4.04520 | 19217 ft | 368 kts | 343° |
| 2026-04-30 21:32 | 40.37937 | 4.02961 | 20446 ft | 374 kts | 343° |
| 2026-04-30 21:32 | 40.40480 | 4.02167 | 21056 ft | 377 kts | 343° |
| 2026-04-30 21:32 | 40.43046 | 4.01362 | 21662 ft | 381 kts | 343° |
| 2026-04-30 21:32 | 40.45629 | 4.00552 | 22269 ft | 384 kts | 343° |
| 2026-04-30 21:33 | 40.48231 | 3.99721 | 22872 ft | 386 kts | 341° |
| 2026-04-30 21:33 | 40.53069 | 3.96753 | 23993 ft | 385 kts | 325° |
| 2026-04-30 21:33 | 40.55366 | 3.94914 | 24476 ft | 388 kts | 325° |
| 2026-04-30 21:34 | 40.57651 | 3.93088 | 24950 ft | 391 kts | 325° |
| 2026-04-30 21:34 | 40.62332 | 3.89360 | 25858 ft | 396 kts | 325° |
| 2026-04-30 21:34 | 40.64699 | 3.87474 | 26310 ft | 399 kts | 325° |
| 2026-04-30 21:35 | 40.67080 | 3.85575 | 26748 ft | 402 kts | 325° |
| 2026-04-30 21:35 | 40.69478 | 3.83659 | 27181 ft | 404 kts | 325° |
| 2026-04-30 21:35 | 40.71888 | 3.81730 | 27607 ft | 407 kts | 324° |
| 2026-04-30 21:35 | 40.74316 | 3.79784 | 28028 ft | 410 kts | 324° |
| 2026-04-30 21:36 | 40.76764 | 3.77823 | 28425 ft | 413 kts | 324° |
| 2026-04-30 21:36 | 40.79227 | 3.75847 | 28838 ft | 416 kts | 324° |
| 2026-04-30 21:37 | 40.86719 | 3.69829 | 30068 ft | 424 kts | 324° |
| 2026-04-30 21:37 | 40.89243 | 3.67794 | 30441 ft | 426 kts | 324° |
| 2026-04-30 21:37 | 40.91779 | 3.65749 | 30777 ft | 428 kts | 324° |
| 2026-04-30 21:37 | 40.94331 | 3.63691 | 31101 ft | 430 kts | 324° |
| 2026-04-30 21:38 | 40.96893 | 3.61620 | 31423 ft | 433 kts | 324° |
| 2026-04-30 21:38 | 40.99468 | 3.59538 | 31737 ft | 435 kts | 324° |
| 2026-04-30 21:38 | 41.02048 | 3.57450 | 32130 ft | 435 kts | 324° |
| 2026-04-30 21:38 | 41.04626 | 3.55365 | 32583 ft | 434 kts | 324° |
| 2026-04-30 21:39 | 41.07197 | 3.53286 | 33028 ft | 433 kts | 324° |
| 2026-04-30 21:39 | 41.09762 | 3.51207 | 33496 ft | 431 kts | 324° |
| 2026-04-30 21:39 | 41.12315 | 3.49135 | 33983 ft | 430 kts | 324° |
| 2026-04-30 21:39 | 41.14860 | 3.47064 | 34400 ft | 429 kts | 324° |
| 2026-04-30 21:40 | 41.17397 | 3.44993 | 34775 ft | 428 kts | 324° |
| 2026-04-30 21:40 | 41.19925 | 3.42928 | 35136 ft | 427 kts | 324° |
| 2026-04-30 21:40 | 41.22457 | 3.40864 | 35491 ft | 426 kts | 324° |
| 2026-04-30 21:40 | 41.24980 | 3.38811 | 35835 ft | 425 kts | 324° |
| 2026-04-30 21:41 | 41.27498 | 3.36754 | 36175 ft | 424 kts | 324° |
| 2026-04-30 21:41 | 41.30010 | 3.34697 | 36517 ft | 424 kts | 324° |
| 2026-04-30 21:41 | 41.32515 | 3.32641 | 36859 ft | 423 kts | 324° |
| 2026-04-30 21:41 | 41.35016 | 3.30586 | 37118 ft | 422 kts | 324° |
| 2026-04-30 21:42 | 41.40009 | 3.26491 | 37167 ft | 421 kts | 324° |
| 2026-04-30 21:42 | 41.44959 | 3.22422 | 37173 ft | 421 kts | 324° |
| 2026-04-30 21:43 | 41.49932 | 3.18308 | 37171 ft | 420 kts | 323° |
| 2026-04-30 21:43 | 41.54742 | 3.13927 | 37165 ft | 417 kts | 320° |
| 2026-04-30 21:44 | 41.59428 | 3.09385 | 37168 ft | 416 kts | 320° |
| 2026-04-30 21:44 | 41.64117 | 3.04860 | 37172 ft | 416 kts | 321° |
| 2026-04-30 21:45 | 41.68850 | 3.00354 | 37175 ft | 418 kts | 321° |
| 2026-04-30 21:45 | 41.73600 | 2.95842 | 37173 ft | 419 kts | 321° |
| 2026-04-30 21:46 | 41.78344 | 2.91334 | 37179 ft | 417 kts | 321° |
| 2026-04-30 21:46 | 41.83068 | 2.86828 | 37179 ft | 417 kts | 321° |
| 2026-04-30 21:47 | 41.87784 | 2.82315 | 37179 ft | 417 kts | 321° |
| 2026-04-30 21:47 | 41.92501 | 2.77796 | 37193 ft | 416 kts | 321° |
| 2026-04-30 21:48 | 41.97088 | 2.73069 | 37198 ft | 414 kts | 317° |
| 2026-04-30 21:48 | 42.01498 | 2.68122 | 37191 ft | 412 kts | 316° |
| 2026-04-30 21:49 | 42.05904 | 2.63163 | 37192 ft | 414 kts | 317° |
| 2026-04-30 21:49 | 42.10357 | 2.58232 | 37193 ft | 415 kts | 317° |
| 2026-04-30 21:50 | 42.14826 | 2.53319 | 37194 ft | 415 kts | 317° |
| 2026-04-30 21:50 | 42.19291 | 2.48399 | 37198 ft | 414 kts | 317° |
| 2026-04-30 21:51 | 42.23709 | 2.43507 | 37203 ft | 413 kts | 316° |
| 2026-04-30 21:51 | 42.28149 | 2.38572 | 37205 ft | 413 kts | 316° |
| 2026-04-30 21:52 | 42.32585 | 2.33637 | 37201 ft | 413 kts | 316° |
| 2026-04-30 21:52 | 42.37022 | 2.28698 | 37207 ft | 413 kts | 316° |
| 2026-04-30 21:53 | 42.41461 | 2.23747 | 37205 ft | 412 kts | 316° |
| 2026-04-30 21:53 | 42.46346 | 2.19610 | 37209 ft | 419 kts | 329° |
| 2026-04-30 21:54 | 42.51579 | 2.16127 | 37205 ft | 419 kts | 329° |
| 2026-04-30 21:54 | 42.56815 | 2.12634 | 37207 ft | 419 kts | 329° |
| 2026-04-30 21:55 | 42.62043 | 2.09120 | 37203 ft | 419 kts | 329° |
| 2026-04-30 21:55 | 42.67254 | 2.05613 | 37203 ft | 418 kts | 329° |
| 2026-04-30 21:56 | 42.72466 | 2.02105 | 37200 ft | 418 kts | 329° |
| 2026-04-30 21:56 | 42.77674 | 1.98583 | 37202 ft | 418 kts | 329° |
| 2026-04-30 21:57 | 42.82878 | 1.95060 | 37193 ft | 418 kts | 329° |
| 2026-04-30 21:57 | 42.88083 | 1.91537 | 37193 ft | 418 kts | 329° |
| 2026-04-30 21:58 | 42.93293 | 1.87999 | 37193 ft | 419 kts | 329° |
| 2026-04-30 21:58 | 42.98519 | 1.84444 | 37193 ft | 420 kts | 329° |
| 2026-04-30 21:59 | 43.03742 | 1.80876 | 37188 ft | 419 kts | 329° |
| 2026-04-30 22:00 | 43.11580 | 1.75530 | 37196 ft | 422 kts | 329° |
| 2026-04-30 22:00 | 43.16886 | 1.71889 | 37198 ft | 436 kts | 329° |
| 2026-04-30 22:00 | 43.19653 | 1.69985 | 37196 ft | 443 kts | 329° |
| 2026-04-30 22:01 | 43.25237 | 1.66142 | 37193 ft | 455 kts | 329° |
| 2026-04-30 22:01 | 43.30921 | 1.62234 | 37478 ft | 457 kts | 329° |
| 2026-04-30 22:02 | 43.33733 | 1.60306 | 37962 ft | 446 kts | 329° |
| 2026-04-30 22:02 | 43.36462 | 1.58445 | 38016 ft | 430 kts | 329° |
| 2026-04-30 22:02 | 43.41731 | 1.54842 | 38022 ft | 419 kts | 329° |
| 2026-04-30 22:03 | 43.46915 | 1.51223 | 38030 ft | 417 kts | 328° |
| 2026-04-30 22:03 | 43.52081 | 1.47602 | 38187 ft | 416 kts | 328° |
| 2026-04-30 22:04 | 43.57238 | 1.44009 | 38201 ft | 415 kts | 329° |
| 2026-04-30 22:05 | 43.64966 | 1.38635 | 38186 ft | 414 kts | 329° |
| 2026-04-30 22:05 | 43.70108 | 1.35048 | 38191 ft | 414 kts | 328° |
| 2026-04-30 22:06 | 43.75247 | 1.31444 | 38192 ft | 414 kts | 328° |
| 2026-04-30 22:06 | 43.82955 | 1.26029 | 38212 ft | 414 kts | 328° |
| 2026-04-30 22:07 | 43.88093 | 1.22420 | 38206 ft | 414 kts | 329° |
| 2026-04-30 22:07 | 43.92370 | 1.19407 | 38198 ft | 414 kts | 328° |
| 2026-04-30 22:08 | 43.97512 | 1.15784 | 38198 ft | 415 kts | 329° |
| 2026-04-30 22:08 | 44.02654 | 1.12154 | 38210 ft | 415 kts | 328° |
| 2026-04-30 22:09 | 44.07801 | 1.08499 | 38196 ft | 416 kts | 329° |
| 2026-04-30 22:09 | 44.12952 | 1.04835 | 38185 ft | 416 kts | 329° |
| 2026-04-30 22:10 | 44.18112 | 1.01165 | 38184 ft | 416 kts | 329° |
| 2026-04-30 22:10 | 44.23276 | 0.97492 | 38195 ft | 417 kts | 329° |
| 2026-04-30 22:11 | 44.31022 | 0.91958 | 38190 ft | 417 kts | 329° |
| 2026-04-30 22:12 | 44.36188 | 0.88255 | 38186 ft | 417 kts | 329° |
| 2026-04-30 22:12 | 44.41324 | 0.84574 | 38189 ft | 418 kts | 329° |
| 2026-04-30 22:13 | 44.46495 | 0.80853 | 38193 ft | 419 kts | 329° |
| 2026-04-30 22:13 | 44.51683 | 0.77112 | 38182 ft | 420 kts | 329° |
| 2026-04-30 22:14 | 44.56869 | 0.73357 | 38192 ft | 420 kts | 329° |
| 2026-04-30 22:14 | 44.62056 | 0.69590 | 38209 ft | 420 kts | 329° |
| 2026-04-30 22:15 | 44.67248 | 0.65833 | 38201 ft | 420 kts | 329° |
| 2026-04-30 22:15 | 44.72449 | 0.62070 | 38194 ft | 421 kts | 329° |
| 2026-04-30 22:16 | 44.77645 | 0.58283 | 38193 ft | 421 kts | 329° |
| 2026-04-30 22:17 | 44.88044 | 0.50673 | 38196 ft | 421 kts | 329° |
| 2026-04-30 22:17 | 44.95844 | 0.44957 | 38198 ft | 421 kts | 329° |
| 2026-04-30 22:18 | 45.03649 | 0.39220 | 38215 ft | 422 kts | 330° |
| 2026-04-30 22:19 | 45.11429 | 0.33495 | 38209 ft | 422 kts | 330° |
| 2026-04-30 22:20 | 45.19226 | 0.27721 | 38222 ft | 421 kts | 330° |
| 2026-04-30 22:20 | 45.27029 | 0.21925 | 38199 ft | 423 kts | 330° |
| 2026-04-30 22:21 | 45.32239 | 0.18049 | 38195 ft | 423 kts | 330° |
| 2026-04-30 22:21 | 45.37456 | 0.14156 | 38195 ft | 423 kts | 330° |
| 2026-04-30 22:22 | 45.40070 | 0.12202 | 37977 ft | 425 kts | 330° |
| 2026-04-30 22:22 | 45.42688 | 0.10249 | 37706 ft | 425 kts | 330° |
| 2026-04-30 22:22 | 45.45311 | 0.08294 | 37440 ft | 426 kts | 330° |
| 2026-04-30 22:22 | 45.47940 | 0.06331 | 37175 ft | 426 kts | 330° |
| 2026-04-30 22:23 | 45.50565 | 0.04366 | 36910 ft | 427 kts | 330° |
| 2026-04-30 22:23 | 45.53195 | 0.02392 | 36667 ft | 427 kts | 330° |
| 2026-04-30 22:23 | 45.55824 | 0.00414 | 36414 ft | 428 kts | 330° |
| 2026-04-30 22:23 | 45.58454 | -0.01565 | 36158 ft | 427 kts | 331° |
| 2026-04-30 22:24 | 45.61076 | -0.03541 | 35908 ft | 425 kts | 331° |
| 2026-04-30 22:24 | 45.63674 | -0.05505 | 35588 ft | 420 kts | 331° |
| 2026-04-30 22:24 | 45.66248 | -0.07450 | 35084 ft | 417 kts | 332° |
| 2026-04-30 22:24 | 45.68802 | -0.09381 | 34602 ft | 414 kts | 332° |
| 2026-04-30 22:25 | 45.71302 | -0.11272 | 34102 ft | 411 kts | 332° |
| 2026-04-30 22:25 | 45.73820 | -0.13178 | 33579 ft | 407 kts | 332° |
| 2026-04-30 22:25 | 45.76313 | -0.15062 | 33102 ft | 403 kts | 332° |
| 2026-04-30 22:25 | 45.78779 | -0.16929 | 32627 ft | 399 kts | 333° |
| 2026-04-30 22:26 | 45.83637 | -0.20629 | 31695 ft | 392 kts | 333° |
| 2026-04-30 22:26 | 45.86035 | -0.22455 | 31237 ft | 389 kts | 333° |
| 2026-04-30 22:26 | 45.88413 | -0.24263 | 30800 ft | 385 kts | 333° |
| 2026-04-30 22:27 | 45.90774 | -0.26057 | 30362 ft | 383 kts | 333° |
| 2026-04-30 22:27 | 45.93121 | -0.27844 | 29892 ft | 380 kts | 333° |
| 2026-04-30 22:27 | 45.97737 | -0.31376 | 29052 ft | 372 kts | 333° |
| 2026-04-30 22:28 | 46.02262 | -0.34849 | 28255 ft | 365 kts | 334° |
| 2026-04-30 22:28 | 46.04490 | -0.36557 | 27863 ft | 361 kts | 334° |
| 2026-04-30 22:29 | 46.11051 | -0.41597 | 26665 ft | 352 kts | 334° |
| 2026-04-30 22:29 | 46.13202 | -0.43252 | 26256 ft | 349 kts | 334° |
| 2026-04-30 22:30 | 46.21703 | -0.49806 | 24558 ft | 345 kts | 334° |
| 2026-04-30 22:31 | 46.28050 | -0.54715 | 23194 ft | 344 kts | 334° |
| 2026-04-30 22:32 | 46.34339 | -0.59596 | 21906 ft | 340 kts | 334° |
| 2026-04-30 22:32 | 46.38473 | -0.62811 | 21069 ft | 338 kts | 334° |
| 2026-04-30 22:33 | 46.44438 | -0.68204 | 19844 ft | 339 kts | 319° |
| 2026-04-30 22:33 | 46.47963 | -0.72745 | 19026 ft | 339 kts | 319° |
| 2026-04-30 22:34 | 46.53265 | -0.79555 | 17777 ft | 338 kts | 319° |
| 2026-04-30 22:35 | 46.56642 | -0.84261 | 16981 ft | 335 kts | 306° |
| 2026-04-30 22:36 | 46.58663 | -0.97040 | 15440 ft | 328 kts | 271° |
| 2026-04-30 22:36 | 46.58764 | -1.00347 | 15061 ft | 327 kts | 271° |
| 2026-04-30 22:37 | 46.59075 | -1.10243 | 13922 ft | 326 kts | 271° |
| 2026-04-30 22:37 | 46.59191 | -1.13536 | 13458 ft | 327 kts | 271° |
| 2026-04-30 22:37 | 46.59430 | -1.20108 | 12624 ft | 324 kts | 271° |
| 2026-04-30 22:38 | 46.59740 | -1.26614 | 11757 ft | 323 kts | 281° |
| 2026-04-30 22:38 | 46.62172 | -1.31972 | 10919 ft | 322 kts | 315° |
| 2026-04-30 22:39 | 46.63795 | -1.34213 | 10512 ft | 321 kts | 316° |
| 2026-04-30 22:39 | 46.68634 | -1.40810 | 9011 ft | 314 kts | 316° |
| 2026-04-30 22:40 | 46.73314 | -1.47154 | 7460 ft | 300 kts | 316° |
| 2026-04-30 22:41 | 46.77696 | -1.53077 | 7168 ft | 281 kts | 316° |
| 2026-04-30 22:41 | 46.80560 | -1.56948 | 7150 ft | 280 kts | 316° |
| 2026-04-30 22:42 | 46.86185 | -1.64543 | 5549 ft | 271 kts | 316° |
| 2026-04-30 22:43 | 46.88849 | -1.68121 | 5049 ft | 251 kts | 316° |
| 2026-04-30 22:43 | 46.91350 | -1.71486 | 4389 ft | 238 kts | 316° |
| 2026-04-30 22:44 | 46.93860 | -1.74449 | 3742 ft | 230 kts | 334° |
| 2026-04-30 22:45 | 46.99637 | -1.72968 | 3034 ft | 202 kts | 27° |
| 2026-04-30 22:45 | 47.02104 | -1.71103 | 2737 ft | 197 kts | 27° |
| 2026-04-30 22:46 | 47.04473 | -1.69309 | 2223 ft | 181 kts | 27° |
| 2026-04-30 22:47 | 47.08480 | -1.66293 | 1319 ft | 148 kts | 26° |
| 2026-04-30 22:47 | 47.10196 | -1.64978 | 1003 ft | 135 kts | 26° |
| 2026-04-30 22:48 | 47.11850 | -1.63732 | 624 ft | 133 kts | 27° |
| 2026-04-30 22:49 | 47.14260 | -1.61881 | 118 ft | 128 kts | 27° |
| 2026-04-30 22:49 | 47.15699 | -1.60783 | 86 ft | 39 kts | 27° |
| 2026-04-30 22:50 | 47.15825 | -1.60416 | 89 ft | 8 kts | 25° |
| 2026-04-30 22:51 | 47.15868 | -1.60306 | 91 ft | 6 kts | 116° |
| 2026-04-30 22:51 | 47.15860 | -1.60283 | 90 ft | 0 kts | 116° |